createdAt,value
2022-10-31T00:01:28.466Z,100.00
2022-10-31T00:03:55.547Z,100.00
2022-10-31T00:06:23.803Z,100.00
2022-10-31T00:08:56.263Z,100.00
2022-10-31T00:11:23.384Z,100.00
2022-10-31T00:13:50.104Z,100.00
2022-10-31T00:16:23.383Z,100.00
2022-10-31T00:18:55.127Z,100.00
2022-10-31T00:21:23.052Z,100.00
2022-10-31T00:23:50.324Z,100.00
2022-10-31T00:26:17.196Z,100.00
2022-10-31T00:28:44.166Z,100.00
2022-10-31T00:31:12.677Z,100.00
2022-10-31T00:33:40.485Z,100.00
2022-10-31T00:36:10.844Z,100.00
2022-10-31T00:38:37.501Z,100.00
2022-10-31T00:41:04.474Z,100.00
2022-10-31T00:43:31.770Z,100.00
2022-10-31T00:45:58.527Z,100.00
2022-10-31T00:48:25.243Z,100.00
2022-10-31T00:50:53.249Z,100.00
2022-10-31T00:53:19.972Z,100.00
2022-10-31T00:55:47.429Z,100.00
2022-10-31T01:00:41.956Z,100.00
2022-10-31T01:03:08.943Z,100.00
2022-10-31T01:05:38.605Z,100.00
2022-10-31T01:08:05.175Z,100.00
2022-10-31T01:10:31.779Z,100.00
2022-10-31T01:12:58.721Z,100.00
2022-10-31T01:15:25.568Z,100.00
2022-10-31T01:17:52.190Z,100.00
2022-10-31T01:20:19.496Z,100.00
2022-10-31T01:22:46.114Z,100.00
2022-10-31T01:25:13.088Z,100.00
2022-10-31T01:27:39.708Z,100.00
2022-10-31T01:30:07.979Z,100.00
2022-10-31T01:32:34.722Z,100.00
2022-10-31T01:35:01.400Z,100.00
2022-10-31T01:37:28.168Z,100.00
2022-10-31T01:39:55.429Z,100.00
2022-10-31T01:42:23.759Z,100.00
2022-10-31T01:44:54.780Z,100.00
2022-10-31T01:47:33.003Z,100.00
2022-10-31T01:50:03.391Z,100.00
2022-10-31T01:52:36.099Z,100.00
2022-10-31T01:55:08.963Z,100.00
2022-10-31T01:57:37.960Z,100.00
2022-10-31T02:00:09.203Z,100.00
2022-10-31T02:02:46.470Z,100.00
2022-10-31T02:05:18.953Z,100.00
2022-10-31T02:08:23.896Z,100.00
2022-10-31T02:10:50.427Z,100.00
2022-10-31T02:13:18.928Z,100.00
2022-10-31T02:15:52.328Z,100.00
2022-10-31T02:18:20.335Z,100.00
2022-10-31T02:20:48.024Z,100.00
2022-10-31T02:23:17.903Z,100.00
2022-10-31T02:26:05.136Z,100.00
2022-10-31T02:28:37.874Z,100.00
2022-10-31T02:31:16.738Z,100.00
2022-10-31T02:33:51.332Z,100.00
2022-10-31T02:36:47.355Z,100.00
2022-10-31T02:39:28.429Z,100.00
2022-10-31T02:42:17.388Z,100.00
2022-10-31T02:44:58.834Z,100.00
2022-10-31T02:47:33.699Z,100.00
2022-10-31T02:50:07.088Z,100.00
2022-10-31T02:52:35.280Z,100.00
2022-10-31T02:55:25.210Z,100.00
2022-10-31T02:57:57.829Z,100.00
2022-10-31T03:00:25.506Z,100.00
2022-10-31T03:03:01.675Z,100.00
2022-10-31T03:05:48.975Z,100.00
2022-10-31T03:08:47.540Z,100.00
2022-10-31T03:11:14.321Z,100.00
2022-10-31T03:13:53.121Z,100.00
2022-10-31T03:16:31.745Z,100.00
2022-10-31T03:19:08.933Z,100.00
2022-10-31T03:21:56.951Z,100.00
2022-10-31T03:24:30.371Z,100.00
2022-10-31T03:27:01.248Z,100.00
2022-10-31T03:29:35.143Z,100.00
2022-10-31T03:32:06.993Z,100.00
2022-10-31T03:34:37.924Z,100.00
2022-10-31T03:37:07.154Z,100.00
2022-10-31T03:39:37.060Z,100.00
2022-10-31T03:42:11.879Z,100.00
2022-10-31T03:44:41.578Z,100.00
2022-10-31T03:47:08.412Z,100.00
2022-10-31T03:49:36.200Z,100.00
2022-10-31T03:52:12.435Z,100.00
2022-10-31T03:54:46.336Z,100.00
2022-10-31T03:57:28.269Z,100.00
2022-10-31T04:00:06.792Z,100.00
2022-10-31T04:03:10.068Z,100.00
2022-10-31T04:05:38.969Z,100.00
2022-10-31T04:08:12.385Z,100.00
2022-10-31T04:10:41.067Z,100.00
2022-10-31T04:13:14.467Z,100.00
2022-10-31T04:15:57.640Z,100.00
2022-10-31T04:18:26.236Z,100.00
2022-10-31T04:21:02.678Z,100.00
2022-10-31T04:23:30.037Z,100.00
2022-10-31T04:25:57.144Z,100.00
2022-10-31T04:28:23.886Z,100.00
2022-10-31T04:30:52.350Z,100.00
2022-10-31T04:33:19.208Z,100.00
2022-10-31T04:35:46.906Z,100.00
2022-10-31T04:38:13.569Z,100.00
2022-10-31T04:40:40.631Z,100.00
2022-10-31T04:43:33.010Z,100.00
2022-10-31T04:46:00.468Z,100.00
2022-10-31T04:48:27.208Z,100.00
2022-10-31T04:50:59.249Z,100.00
2022-10-31T04:53:25.908Z,100.00
2022-10-31T04:56:12.821Z,100.00
2022-10-31T04:58:45.898Z,100.00
2022-10-31T05:01:13.445Z,100.00
2022-10-31T05:03:41.137Z,100.00
2022-10-31T05:06:08.442Z,100.00
2022-10-31T05:08:35.491Z,100.00
2022-10-31T05:11:05.043Z,100.00
2022-10-31T05:13:32.213Z,100.00
2022-10-31T05:16:14.572Z,100.00
2022-10-31T05:18:59.737Z,100.00
2022-10-31T05:21:45.143Z,100.00
2022-10-31T05:24:11.953Z,100.00
2022-10-31T05:26:39.981Z,100.00
2022-10-31T05:29:06.673Z,100.00
2022-10-31T05:31:33.625Z,100.00
2022-10-31T05:34:01.305Z,100.00
2022-10-31T05:36:48.175Z,100.00
2022-10-31T05:39:16.854Z,100.00
2022-10-31T05:41:47.205Z,100.00
2022-10-31T05:44:18.523Z,100.00
2022-10-31T05:46:57.513Z,100.00
2022-10-31T05:49:24.201Z,100.00
2022-10-31T05:51:53.470Z,100.00
2022-10-31T05:54:20.951Z,100.00
2022-10-31T05:56:47.605Z,100.00
2022-10-31T05:59:14.403Z,100.00
2022-10-31T06:01:41.161Z,100.00
2022-10-31T06:04:17.541Z,100.00
2022-10-31T06:06:44.313Z,100.00
2022-10-31T06:09:11.472Z,100.00
2022-10-31T06:11:38.245Z,100.00
2022-10-31T06:14:05.254Z,100.00
2022-10-31T06:16:45.875Z,100.00
2022-10-31T06:19:32.431Z,100.00
2022-10-31T06:21:59.494Z,100.00
2022-10-31T06:24:26.622Z,100.00
2022-10-31T06:26:53.571Z,100.00
2022-10-31T06:29:21.255Z,100.00
2022-10-31T06:31:58.178Z,100.00
2022-10-31T06:34:24.855Z,100.00
2022-10-31T06:36:51.461Z,100.00
2022-10-31T06:39:20.379Z,100.00
2022-10-31T06:41:50.289Z,100.00
2022-10-31T06:44:19.468Z,100.00
2022-10-31T06:47:08.871Z,100.00
2022-10-31T06:49:58.222Z,100.00
2022-10-31T06:52:25.422Z,100.00
2022-10-31T06:54:52.183Z,100.00
2022-10-31T06:57:20.952Z,100.00
2022-10-31T06:59:47.643Z,100.00
2022-10-31T07:02:30.221Z,100.00
2022-10-31T07:04:57.507Z,100.00
2022-10-31T07:07:24.349Z,100.00
2022-10-31T07:09:51.088Z,100.00
2022-10-31T07:12:20.179Z,100.00
2022-10-31T07:14:54.716Z,100.00
2022-10-31T07:17:29.542Z,100.00
2022-10-31T07:19:58.055Z,100.00
2022-10-31T07:22:24.704Z,100.00
2022-10-31T07:24:51.349Z,100.00
2022-10-31T07:27:42.829Z,100.00
2022-10-31T07:30:12.265Z,100.00
2022-10-31T07:32:40.746Z,100.00
2022-10-31T07:35:10.124Z,100.00
2022-10-31T07:37:47.647Z,100.00
2022-10-31T07:40:14.991Z,100.00
2022-10-31T07:42:44.870Z,100.00
2022-10-31T07:45:29.886Z,100.00
2022-10-31T07:48:35.195Z,100.00
2022-10-31T07:51:38.925Z,100.00
2022-10-31T07:54:16.176Z,100.00
2022-10-31T07:56:42.829Z,100.00
2022-10-31T07:59:09.500Z,100.00
2022-10-31T08:01:36.090Z,100.00
2022-10-31T08:04:22.971Z,100.00
2022-10-31T08:07:08.043Z,100.00
2022-10-31T08:09:36.551Z,100.00
2022-10-31T08:12:08.412Z,100.00
2022-10-31T08:14:35.843Z,100.00
2022-10-31T08:17:02.721Z,100.00
2022-10-31T08:19:36.504Z,100.00
2022-10-31T08:22:03.514Z,100.00
2022-10-31T08:24:32.976Z,100.00
2022-10-31T08:26:59.863Z,100.00
2022-10-31T08:29:26.564Z,100.00
2022-10-31T08:31:53.435Z,100.00
2022-10-31T08:34:59.218Z,100.00
2022-10-31T08:37:31.916Z,100.00
2022-10-31T08:39:58.676Z,100.00
2022-10-31T08:42:25.648Z,100.00
2022-10-31T08:44:52.477Z,100.00
2022-10-31T08:47:21.267Z,100.00
2022-10-31T08:49:48.361Z,99.87
2022-10-31T08:52:15.588Z,97.94
2022-10-31T08:54:42.863Z,89.43
2022-10-31T08:57:28.488Z,90.00
2022-10-31T08:59:55.097Z,87.68
2022-10-31T09:02:44.892Z,75.28
2022-10-31T09:05:13.568Z,73.98
2022-10-31T09:07:40.286Z,68.29
2022-10-31T09:10:07.263Z,66.70
2022-10-31T09:12:35.515Z,66.28
2022-10-31T09:15:20.839Z,65.13
2022-10-31T09:17:53.197Z,63.14
2022-10-31T09:20:33.450Z,60.56
2022-10-31T09:23:12.067Z,59.00
2022-10-31T09:25:39.877Z,55.77
2022-10-31T09:28:29.179Z,55.05
2022-10-31T09:30:59.096Z,54.35
2022-10-31T09:33:44.273Z,55.24
2022-10-31T09:36:31.402Z,55.96
2022-10-31T09:38:58.112Z,53.11
2022-10-31T09:41:38.696Z,51.85
2022-10-31T09:44:36.631Z,49.94
2022-10-31T09:47:15.655Z,48.67
2022-10-31T09:50:15.433Z,47.83
2022-10-31T09:52:54.639Z,48.37
2022-10-31T09:55:32.172Z,47.34
2022-10-31T09:58:01.414Z,48.42
2022-10-31T10:00:28.441Z,46.29
2022-10-31T10:03:03.823Z,45.91
2022-10-31T10:05:46.175Z,44.63
2022-10-31T10:08:23.260Z,44.16
2022-10-31T10:11:33.540Z,43.77
2022-10-31T10:14:44.491Z,44.20
2022-10-31T10:17:49.854Z,44.10
2022-10-31T10:20:22.228Z,43.44
2022-10-31T10:23:00.988Z,44.02
2022-10-31T10:25:51.638Z,44.34
2022-10-31T10:28:22.086Z,44.24
2022-10-31T10:31:08.258Z,43.80
2022-10-31T10:33:41.357Z,43.84
2022-10-31T10:36:20.681Z,43.45
2022-10-31T10:39:00.146Z,43.61
2022-10-31T10:41:34.815Z,44.32
2022-10-31T10:44:01.853Z,42.90
2022-10-31T10:47:02.607Z,43.02
2022-10-31T10:49:40.756Z,41.42
2022-10-31T10:52:44.573Z,40.92
2022-10-31T10:55:48.313Z,40.06
2022-10-31T10:58:15.331Z,40.22
2022-10-31T11:00:46.769Z,40.22
2022-10-31T11:03:18.405Z,41.54
2022-10-31T11:05:50.627Z,40.12
2022-10-31T11:08:29.135Z,40.26
2022-10-31T11:11:04.351Z,40.09
2022-10-31T11:13:33.351Z,41.02
2022-10-31T11:16:02.652Z,40.49
2022-10-31T11:18:39.962Z,40.60
2022-10-31T11:21:18.012Z,39.81
2022-10-31T11:23:44.674Z,39.46
2022-10-31T11:26:20.735Z,37.26
2022-10-31T11:28:57.967Z,38.22
2022-10-31T11:31:26.289Z,37.83
2022-10-31T11:34:00.614Z,38.42
2022-10-31T11:36:34.724Z,37.05
2022-10-31T11:39:04.129Z,37.16
2022-10-31T11:41:34.214Z,38.09
2022-10-31T11:44:23.062Z,37.42
2022-10-31T11:46:52.801Z,38.04
2022-10-31T11:49:37.493Z,37.28
2022-10-31T11:52:29.002Z,37.27
2022-10-31T11:54:59.330Z,37.57
2022-10-31T11:57:30.071Z,37.76
2022-10-31T11:59:59.771Z,37.45
2022-10-31T12:02:27.638Z,37.90
2022-10-31T12:05:13.186Z,37.65
2022-10-31T12:07:39.885Z,37.90
2022-10-31T12:10:11.896Z,37.88
2022-10-31T12:13:17.474Z,37.62
2022-10-31T12:15:52.823Z,36.72
2022-10-31T12:18:43.463Z,36.54
2022-10-31T12:21:27.166Z,36.12
2022-10-31T12:23:59.741Z,36.22
2022-10-31T12:26:49.524Z,35.75
2022-10-31T12:29:31.540Z,35.88
2022-10-31T12:32:20.601Z,34.75
2022-10-31T12:35:15.546Z,35.46
2022-10-31T12:37:54.368Z,35.57
2022-10-31T12:40:45.299Z,36.05
2022-10-31T12:43:35.313Z,35.86
2022-10-31T12:46:05.630Z,36.54
2022-10-31T12:48:57.542Z,36.84
2022-10-31T12:51:49.117Z,36.75
2022-10-31T12:54:51.568Z,36.78
2022-10-31T12:57:28.227Z,37.31
2022-10-31T13:00:03.966Z,37.42
2022-10-31T13:03:09.099Z,37.98
2022-10-31T13:05:47.360Z,38.21
2022-10-31T13:08:20.765Z,38.82
2022-10-31T13:13:41.281Z,39.70
2022-10-31T13:16:16.408Z,39.97
2022-10-31T13:18:45.693Z,40.83
2022-10-31T13:21:25.653Z,41.14
2022-10-31T13:23:52.799Z,42.07
2022-10-31T13:26:38.443Z,42.73
2022-10-31T13:29:16.191Z,43.51
2022-10-31T13:31:43.562Z,43.83
2022-10-31T13:34:28.424Z,43.89
2022-10-31T13:36:58.952Z,44.29
2022-10-31T13:39:36.350Z,44.14
2022-10-31T13:42:17.065Z,43.94
2022-10-31T13:44:43.775Z,43.86
2022-10-31T13:47:28.577Z,44.11
2022-10-31T13:50:25.682Z,45.12
2022-10-31T13:52:52.335Z,46.01
2022-10-31T13:55:41.365Z,46.16
2022-10-31T13:58:30.175Z,46.69
2022-10-31T14:01:02.953Z,46.60
2022-10-31T14:04:04.568Z,46.57
2022-10-31T14:06:57.756Z,46.54
2022-10-31T14:09:27.377Z,46.83
2022-10-31T14:11:54.964Z,46.88
2022-10-31T14:14:27.187Z,46.98
2022-10-31T14:16:57.389Z,47.87
2022-10-31T14:19:25.428Z,49.06
2022-10-31T14:21:52.314Z,50.36
2022-10-31T14:24:24.804Z,51.30
2022-10-31T14:27:21.699Z,52.26
2022-10-31T14:29:50.644Z,54.13
2022-10-31T14:32:20.281Z,54.61
2022-10-31T14:34:57.153Z,56.13
2022-10-31T14:37:40.050Z,59.14
2022-10-31T14:40:18.476Z,60.76
2022-10-31T14:43:03.269Z,63.03
2022-10-31T14:45:39.630Z,66.11
2022-10-31T14:48:40.675Z,71.43
2022-10-31T14:51:33.789Z,77.87
2022-10-31T14:54:01.132Z,78.77
2022-10-31T14:56:32.157Z,81.85
2022-10-31T14:59:03.542Z,80.71
2022-10-31T15:01:33.800Z,82.29
2022-10-31T15:04:29.453Z,83.74
2022-10-31T15:07:24.626Z,90.24
2022-10-31T15:09:59.239Z,94.50
2022-10-31T15:12:27.656Z,97.27
2022-10-31T15:14:56.348Z,99.17
2022-10-31T15:17:24.960Z,98.29
2022-10-31T15:19:53.396Z,97.50
2022-10-31T15:22:24.453Z,99.73
2022-10-31T15:24:56.746Z,100.00
2022-10-31T15:27:25.198Z,100.00
2022-10-31T15:29:54.785Z,100.00
2022-10-31T15:32:23.327Z,100.00
2022-10-31T15:34:52.286Z,100.00
2022-10-31T15:37:21.263Z,100.00
2022-10-31T15:39:49.483Z,100.00
2022-10-31T15:42:28.819Z,100.00
2022-10-31T15:45:05.801Z,100.00
2022-10-31T15:47:33.895Z,100.00
2022-10-31T15:50:02.748Z,100.00
2022-10-31T15:52:29.740Z,100.00
2022-10-31T15:55:19.257Z,100.00
2022-10-31T15:57:49.268Z,100.00
2022-10-31T16:00:31.805Z,100.00
2022-10-31T16:03:21.192Z,100.00
2022-10-31T16:05:47.732Z,100.00
2022-10-31T16:08:24.980Z,100.00
2022-10-31T16:10:52.450Z,100.00
2022-10-31T16:13:24.695Z,100.00
2022-10-31T16:16:21.237Z,100.00
2022-10-31T16:18:44.446Z,100.00
2022-10-31T16:21:12.278Z,100.00
2022-10-31T16:23:47.218Z,100.00
2022-10-31T16:26:18.933Z,100.00
2022-10-31T16:29:03.217Z,100.00
2022-10-31T16:31:40.651Z,100.00
2022-10-31T16:34:26.305Z,100.00
2022-10-31T16:36:54.052Z,100.00
2022-10-31T16:39:20.978Z,100.00
2022-10-31T16:41:51.345Z,100.00
2022-10-31T16:44:22.632Z,100.00
2022-10-31T16:47:22.206Z,100.00
2022-10-31T16:49:51.509Z,100.00
2022-10-31T16:52:18.503Z,100.00
2022-10-31T16:54:45.133Z,100.00
2022-10-31T16:57:16.560Z,100.00
2022-10-31T16:59:44.919Z,100.00
2022-10-31T17:02:16.006Z,100.00
2022-10-31T17:04:43.230Z,100.00
2022-10-31T17:07:09.930Z,100.00
2022-10-31T17:09:36.581Z,100.00
2022-10-31T17:12:06.339Z,100.00
2022-10-31T17:14:34.052Z,100.00
2022-10-31T17:17:00.665Z,100.00
2022-10-31T17:19:27.342Z,100.00
2022-10-31T17:21:54.123Z,100.00
2022-10-31T17:24:20.704Z,100.00
2022-10-31T17:26:47.355Z,100.00
2022-10-31T17:29:14.658Z,100.00
2022-10-31T17:31:41.797Z,100.00
2022-10-31T17:34:08.820Z,100.00
2022-10-31T17:36:35.686Z,100.00
2022-10-31T17:39:04.856Z,100.00
2022-10-31T17:41:31.512Z,100.00
2022-10-31T17:43:58.960Z,100.00
2022-10-31T17:46:27.749Z,100.00
2022-10-31T17:48:54.332Z,100.00
2022-10-31T17:51:21.265Z,100.00
2022-10-31T17:53:47.912Z,100.00
2022-10-31T17:56:14.553Z,100.00
2022-10-31T17:58:41.276Z,100.00
2022-10-31T18:01:13.638Z,100.00
2022-10-31T18:03:41.356Z,100.00
2022-10-31T18:06:09.892Z,100.00
2022-10-31T18:08:39.322Z,100.00
2022-10-31T18:11:12.241Z,100.00
2022-10-31T18:13:39.014Z,100.00
2022-10-31T18:16:11.192Z,100.00
2022-10-31T18:18:38.331Z,100.00
2022-10-31T18:21:05.208Z,100.00
2022-10-31T18:23:32.133Z,100.00
2022-10-31T18:25:58.755Z,100.00
2022-10-31T18:28:25.534Z,100.00
2022-10-31T18:30:52.167Z,100.00
2022-10-31T18:33:19.419Z,100.00
2022-10-31T18:35:46.126Z,100.00
2022-10-31T18:38:12.777Z,100.00
2022-10-31T18:40:39.438Z,100.00
2022-10-31T18:43:06.051Z,100.00
2022-10-31T18:45:45.911Z,100.00
2022-10-31T18:48:14.930Z,100.00
2022-10-31T18:50:42.205Z,100.00
2022-10-31T18:53:09.377Z,100.00
2022-10-31T18:55:43.907Z,100.00
2022-10-31T18:58:14.144Z,100.00
2022-10-31T19:00:40.808Z,100.00
2022-10-31T19:03:07.385Z,100.00
2022-10-31T19:05:34.188Z,100.00
2022-10-31T19:08:00.836Z,100.00
2022-10-31T19:10:27.499Z,100.00
2022-10-31T19:12:54.433Z,100.00
2022-10-31T19:15:21.171Z,100.00
2022-10-31T19:17:48.791Z,100.00
2022-10-31T19:20:15.672Z,100.00
2022-10-31T19:22:42.493Z,100.00
2022-10-31T19:25:11.077Z,100.00
2022-10-31T19:27:38.916Z,100.00
2022-10-31T19:30:06.995Z,100.00
2022-10-31T19:32:34.086Z,100.00
2022-10-31T19:35:00.695Z,100.00
2022-10-31T19:37:27.365Z,100.00
2022-10-31T19:39:54.398Z,100.00
2022-10-31T19:42:21.009Z,100.00
2022-10-31T19:44:47.600Z,100.00
2022-10-31T19:47:14.213Z,100.00
2022-10-31T19:49:40.832Z,100.00
2022-10-31T19:52:07.893Z,100.00
2022-10-31T19:54:34.563Z,100.00
2022-10-31T19:57:01.176Z,100.00
2022-10-31T19:59:27.804Z,100.00
2022-10-31T20:01:54.548Z,100.00
2022-10-31T20:04:21.211Z,100.00
2022-10-31T20:06:47.957Z,100.00
2022-10-31T20:09:14.705Z,100.00
2022-10-31T20:11:44.171Z,100.00
2022-10-31T20:14:13.658Z,100.00
2022-10-31T20:16:41.641Z,100.00
2022-10-31T20:19:11.829Z,100.00
2022-10-31T20:21:39.929Z,100.00
2022-10-31T20:24:09.288Z,100.00
2022-10-31T20:26:40.070Z,100.00
2022-10-31T20:29:07.769Z,100.00
2022-10-31T20:31:36.027Z,100.00
2022-10-31T20:34:03.322Z,100.00
2022-10-31T20:36:30.381Z,100.00
2022-10-31T20:38:58.102Z,100.00
2022-10-31T20:41:24.903Z,100.00
2022-10-31T20:43:52.044Z,100.00
2022-10-31T20:46:25.083Z,100.00
2022-10-31T20:48:53.076Z,100.00
2022-10-31T20:51:22.113Z,100.00
2022-10-31T20:53:50.493Z,100.00
2022-10-31T20:56:19.613Z,100.00
2022-10-31T20:58:47.025Z,100.00
2022-10-31T21:01:20.833Z,100.00
2022-10-31T21:03:48.333Z,100.00
2022-10-31T21:06:16.613Z,100.00
2022-10-31T21:08:43.502Z,100.00
2022-10-31T21:11:13.832Z,100.00
2022-10-31T21:13:42.653Z,100.00
2022-10-31T21:16:12.114Z,100.00
2022-10-31T21:18:40.838Z,100.00
2022-10-31T21:21:29.138Z,100.00
2022-10-31T21:24:06.492Z,100.00
2022-10-31T21:26:36.808Z,100.00
2022-10-31T21:29:04.897Z,100.00
2022-10-31T21:31:32.419Z,100.00
2022-10-31T21:33:59.021Z,100.00
2022-10-31T21:36:26.033Z,100.00
2022-10-31T21:38:54.123Z,100.00
2022-10-31T21:41:21.854Z,100.00
2022-10-31T21:43:50.884Z,100.00
2022-10-31T21:46:20.551Z,100.00
2022-10-31T21:48:47.918Z,100.00
2022-10-31T21:51:23.980Z,100.00
2022-10-31T21:54:10.121Z,100.00
2022-10-31T21:56:37.684Z,100.00
2022-10-31T21:59:05.524Z,100.00
2022-10-31T22:01:33.198Z,100.00
2022-10-31T22:04:00.617Z,100.00
2022-10-31T22:06:29.594Z,100.00
2022-10-31T22:08:59.444Z,100.00
2022-10-31T22:11:27.831Z,100.00
2022-10-31T22:13:55.433Z,100.00
2022-10-31T22:16:23.577Z,100.00
2022-10-31T22:18:55.540Z,100.00
2022-10-31T22:21:25.095Z,100.00
2022-10-31T22:23:56.656Z,100.00
2022-10-31T22:26:24.276Z,100.00
2022-10-31T22:28:53.153Z,100.00
2022-10-31T22:31:21.275Z,100.00
2022-10-31T22:33:48.857Z,100.00
2022-10-31T22:36:18.075Z,100.00
2022-10-31T22:38:46.174Z,100.00
2022-10-31T22:41:29.661Z,100.00
2022-10-31T22:43:56.842Z,100.00
2022-10-31T22:46:35.254Z,100.00
2022-10-31T22:49:05.883Z,100.00
2022-10-31T22:51:35.584Z,100.00
2022-10-31T22:54:02.174Z,100.00
2022-10-31T22:56:31.955Z,100.00
2022-10-31T22:59:00.236Z,100.00
2022-10-31T23:01:31.408Z,100.00
2022-10-31T23:03:58.280Z,100.00
2022-10-31T23:06:27.324Z,100.00
2022-10-31T23:08:54.107Z,100.00
2022-10-31T23:11:50.274Z,100.00
2022-10-31T23:14:20.022Z,100.00
2022-10-31T23:16:55.447Z,100.00
2022-10-31T23:19:26.948Z,100.00
2022-10-31T23:22:01.588Z,100.00
2022-10-31T23:24:39.114Z,100.00
2022-10-31T23:27:11.721Z,100.00
2022-10-31T23:29:50.696Z,100.00
2022-10-31T23:32:27.004Z,100.00
2022-10-31T23:35:01.787Z,100.00
2022-10-31T23:37:30.389Z,100.00
2022-10-31T23:39:57.532Z,100.00
2022-10-31T23:42:25.706Z,100.00
2022-10-31T23:44:52.702Z,100.00
2022-10-31T23:47:20.502Z,100.00
2022-10-31T23:49:47.686Z,100.00
2022-10-31T23:52:15.407Z,100.00
2022-10-31T23:54:42.565Z,100.00
2022-10-31T23:57:14.053Z,100.00
2022-10-31T23:59:40.965Z,100.00
